Shawnee Hills, Ohio
Current Conditions -  °F | °C
As of 8:53 PM on Thursday 20 Nov 2014 (Local Time) from KOSU Reporting Station
Broken Clouds Broken Clouds  
Wind Chill: 12°   Ceiling: 5000
Heat Index: 23°   Visibility: 10mi
Dew Point: 13°   Wind: 10mph
Humidity: 65%   Direction: 250°WSW
Pressure: 30.16"   Gusts: NA
Location:  40.1701°N, 83.0808°W
Report Text: KOSU 210153Z 25009KT 10SM BKN050 M05/M11 A3016 RMK AO2 SLP227 T10501106
Loading
Personal Weather Stations






























Interactive Weather Map New forecast layout! Learn more

10-Day Weather Forecast

Advertisements
Track Severe Weather on mobile